Time;durP1;ratioP1;P1;durP2;ratioP2;P2;SDS_P1;SDS_P2;PMS_P1;PMS_P2;Temp;Humidity;BMP_temperature;BMP_pressure;BME280_temperature;BME280_humidity;BME280_pressure;Samples;Min_cycle;Max_cycle;Signal;HPM_P1;HPM_P2
2021/11/05 00:02:05;;;;;;;3.30;2.20;;;5.00;99.50;;;;;;4978617;28;20035;-78
2021/11/05 00:04:31;;;;;;;4.18;2.30;;;5.00;99.40;;;;;;4995240;28;20499;-78
2021/11/05 00:06:59;;;;;;;2.97;2.28;;;4.90;99.40;;;;;;4976702;28;20022;-78
2021/11/05 00:09:25;;;;;;;3.63;2.38;;;4.90;99.50;;;;;;4993380;28;20022;-78
2021/11/05 00:11:51;;;;;;;2.22;2.03;;;4.90;99.40;;;;;;4995461;28;20026;-76
2021/11/05 00:14:17;;;;;;;2.75;2.55;;;4.80;99.60;;;;;;4998206;28;20228;-78
2021/11/05 00:16:42;;;;;;;2.33;2.13;;;4.80;99.80;;;;;;4980241;28;20053;-77
2021/11/05 00:19:09;;;;;;;3.20;2.38;;;4.80;99.90;;;;;;4997048;28;20061;-77
2021/11/05 00:21:35;;;;;;;2.30;2.08;;;4.70;99.90;;;;;;4998128;28;20069;-77
2021/11/05 00:24:01;;;;;;;2.40;2.15;;;4.70;99.90;;;;;;4998513;28;20022;-78
2021/11/05 00:26:28;;;;;;;2.65;2.15;;;4.70;99.90;;;;;;4997549;28;20026;-78
2021/11/05 00:28:56;;;;;;;2.05;1.77;;;4.60;99.90;;;;;;4999767;28;20022;-78
2021/11/05 00:31:22;;;;;;;2.67;2.13;;;4.60;99.90;;;;;;4997507;28;20033;-78
2021/11/05 00:33:48;;;;;;;2.30;2.10;;;4.50;99.90;;;;;;4981496;28;20030;-79
2021/11/05 00:36:14;;;;;;;2.45;2.03;;;4.50;99.90;;;;;;5002772;28;20086;-77
2021/11/05 00:38:45;;;;;;;2.53;2.33;;;4.50;99.90;;;;;;5001829;28;20023;-77
2021/11/05 00:41:14;;;;;;;2.95;2.45;;;4.50;99.90;;;;;;5007520;28;20027;-78
2021/11/05 00:43:41;;;;;;;2.22;1.98;;;4.40;99.90;;;;;;5010159;28;20018;-80
2021/11/05 00:46:07;;;;;;;1.90;1.80;;;4.40;99.90;;;;;;4987785;28;20026;-79
2021/11/05 00:48:33;;;;;;;3.20;2.20;;;4.40;99.90;;;;;;4996423;28;20027;-79
2021/11/05 00:50:59;;;;;;;2.47;2.28;;;4.40;99.90;;;;;;5012411;28;20061;-79
2021/11/05 00:53:25;;;;;;;3.70;2.30;;;4.40;99.90;;;;;;4991152;28;20038;-78
2021/11/05 00:55:51;;;;;;;3.53;2.50;;;4.40;99.90;;;;;;5012381;28;20145;-78
2021/11/05 00:58:17;;;;;;;5.43;2.20;;;4.40;99.90;;;;;;5014288;28;20108;-79
2021/11/05 01:00:44;;;;;;;2.22;1.75;;;4.40;99.90;;;;;;5006095;28;20038;-78
2021/11/05 01:03:10;;;;;;;2.90;1.85;;;4.40;99.90;;;;;;4980147;28;20030;-77
2021/11/05 01:05:36;;;;;;;2.45;2.08;;;4.40;99.90;;;;;;4998577;28;20057;-78
2021/11/05 01:08:03;;;;;;;1.67;1.58;;;4.40;99.90;;;;;;4997355;28;20499;-78
2021/11/05 01:10:29;;;;;;;2.60;2.13;;;4.30;99.90;;;;;;4977958;28;20069;-78
2021/11/05 01:12:58;;;;;;;4.18;2.42;;;4.30;99.90;;;;;;4996569;28;20038;-78
2021/11/05 01:15:25;;;;;;;2.28;2.05;;;4.30;99.90;;;;;;4982788;28;20041;-78
2021/11/05 01:17:51;;;;;;;2.40;1.70;;;4.30;99.90;;;;;;5005619;28;20030;-79
2021/11/05 01:20:18;;;;;;;2.70;2.00;;;4.30;99.90;;;;;;4986950;28;20034;-79
2021/11/05 01:22:44;;;;;;;3.10;2.28;;;4.30;99.90;;;;;;4988751;28;20027;-79
2021/11/05 01:25:13;;;;;;;2.70;2.00;;;4.30;99.90;;;;;;5004604;28;20032;-78
2021/11/05 01:27:43;;;;;;;2.90;2.28;;;4.30;99.90;;;;;;5004336;28;20113;-79
2021/11/05 01:30:10;;;;;;;2.80;2.53;;;4.30;99.90;;;;;;4983335;28;20098;-78
2021/11/05 01:32:37;;;;;;;2.55;2.25;;;4.30;99.90;;;;;;5003758;28;20105;-78
2021/11/05 01:35:03;;;;;;;2.83;2.22;;;4.30;99.90;;;;;;4981482;28;20457;-77
2021/11/05 01:37:29;;;;;;;2.30;2.10;;;4.30;99.90;;;;;;4999338;28;20030;-77
2021/11/05 01:39:55;;;;;;;2.17;1.98;;;4.30;99.90;;;;;;5001604;28;20023;-78
2021/11/05 01:42:21;;;;;;;2.17;1.98;;;4.30;99.90;;;;;;4985602;28;20439;-78
2021/11/05 01:44:47;;;;;;;2.50;2.10;;;4.20;99.90;;;;;;5002559;28;20042;-79
2021/11/05 01:47:13;;;;;;;2.88;1.90;;;4.20;99.90;;;;;;5000090;28;20042;-76
2021/11/05 01:49:39;;;;;;;2.58;2.38;;;4.20;99.90;;;;;;4986389;28;20368;-78
2021/11/05 01:52:07;;;;;;;2.53;2.00;;;4.20;99.90;;;;;;5005542;28;20114;-77
2021/11/05 01:54:32;;;;;;;2.50;2.30;;;4.20;99.90;;;;;;5006362;28;20045;-78
2021/11/05 01:56:58;;;;;;;2.72;2.35;;;4.20;99.90;;;;;;5010939;28;20030;-78
2021/11/05 01:59:33;;;;;;;2.83;2.60;;;4.20;99.90;;;;;;4998150;28;20015;-78
2021/11/05 02:02:01;;;;;;;3.80;2.75;;;4.20;99.90;;;;;;4996650;28;20090;-78
2021/11/05 02:04:27;;;;;;;2.35;2.15;;;4.20;99.90;;;;;;5015477;28;20049;-79
2021/11/05 02:06:54;;;;;;;2.88;1.75;;;4.10;99.90;;;;;;5013833;28;20037;-78
2021/11/05 02:09:23;;;;;;;3.13;2.35;;;4.10;99.90;;;;;;5009600;28;20022;-78
2021/11/05 02:11:52;;;;;;;2.72;2.22;;;4.10;99.90;;;;;;5004622;28;20057;-79
2021/11/05 02:14:21;;;;;;;3.72;3.33;;;4.10;99.90;;;;;;5005739;28;20034;-78
2021/11/05 02:16:50;;;;;;;2.13;1.95;;;4.00;99.90;;;;;;4995532;28;20034;-79
2021/11/05 02:19:19;;;;;;;1.83;1.73;;;4.00;99.90;;;;;;4994718;28;20495;-78
2021/11/05 02:21:47;;;;;;;1.77;1.60;;;4.00;99.90;;;;;;5004276;28;20027;-78
2021/11/05 02:24:15;;;;;;;2.45;1.98;;;4.00;99.90;;;;;;5000898;28;20030;-78
2021/11/05 02:26:43;;;;;;;2.03;1.83;;;4.00;99.90;;;;;;5000753;28;20030;-78
2021/11/05 02:29:09;;;;;;;2.65;2.17;;;4.00;99.90;;;;;;4999949;28;20037;-78
2021/11/05 02:31:36;;;;;;;2.13;1.98;;;4.00;99.90;;;;;;5003415;28;20030;-78
2021/11/05 02:34:02;;;;;;;2.58;2.38;;;4.00;99.90;;;;;;5011509;28;20049;-78
2021/11/05 02:36:31;;;;;;;8.50;2.58;;;3.90;99.90;;;;;;5011469;28;20082;-78
2021/11/05 02:38:58;;;;;;;2.72;2.50;;;3.90;99.90;;;;;;5012279;28;20667;-79
2021/11/05 02:41:24;;;;;;;2.08;1.90;;;3.90;99.90;;;;;;4990180;28;20053;-78
2021/11/05 02:43:52;;;;;;;3.55;2.50;;;3.90;99.90;;;;;;5007755;28;20158;-77
2021/11/05 02:46:19;;;;;;;2.42;2.08;;;3.90;99.90;;;;;;4999581;28;20041;-78
2021/11/05 02:48:44;;;;;;;3.03;2.30;;;3.90;99.90;;;;;;4985338;28;20406;-79
2021/11/05 02:51:11;;;;;;;2.50;1.95;;;3.90;99.90;;;;;;5000375;28;20030;-77
2021/11/05 02:53:38;;;;;;;2.60;2.33;;;3.80;99.90;;;;;;5002652;28;20031;-78
2021/11/05 02:56:05;;;;;;;1.92;1.77;;;3.80;99.90;;;;;;4986894;28;20087;-78
2021/11/05 02:58:31;;;;;;;2.58;2.33;;;3.80;99.90;;;;;;5004779;28;20037;-78
2021/11/05 03:00:59;;;;;;;3.03;1.92;;;3.90;99.90;;;;;;5002073;28;20033;-78
2021/11/05 03:03:26;;;;;;;2.47;2.20;;;3.80;99.90;;;;;;4985013;28;20081;-78
2021/11/05 03:05:52;;;;;;;2.75;2.40;;;3.90;99.90;;;;;;4983617;28;20364;-78
2021/11/05 03:08:19;;;;;;;3.03;2.20;;;3.80;99.90;;;;;;4981415;28;20092;-77
2021/11/05 03:10:45;;;;;;;4.13;2.00;;;3.80;99.90;;;;;;4997577;28;20093;-77
2021/11/05 03:13:10;;;;;;;2.45;2.25;;;3.80;99.90;;;;;;4981002;28;20287;-77
2021/11/05 03:15:36;;;;;;;2.25;1.88;;;3.80;99.90;;;;;;4981225;28;20031;-77
2021/11/05 03:18:03;;;;;;;2.75;1.88;;;3.80;99.90;;;;;;4999446;28;20046;-78
2021/11/05 03:20:29;;;;;;;5.30;2.13;;;3.80;99.90;;;;;;4987505;28;20049;-76
2021/11/05 03:22:55;;;;;;;3.05;2.20;;;3.70;99.90;;;;;;4999379;28;20030;-77
2021/11/05 03:25:21;;;;;;;2.70;2.50;;;3.70;99.90;;;;;;4982453;28;20034;-78
2021/11/05 03:27:47;;;;;;;2.35;2.08;;;3.70;99.90;;;;;;5003552;28;20029;-77
2021/11/05 03:30:15;;;;;;;1.85;1.65;;;3.60;99.90;;;;;;4980540;28;20056;-78
2021/11/05 03:32:41;;;;;;;2.13;1.92;;;3.60;99.90;;;;;;4998242;28;20031;-78
2021/11/05 03:35:08;;;;;;;2.08;1.88;;;3.50;99.90;;;;;;4986361;28;20034;-79
2021/11/05 03:37:35;;;;;;;3.38;2.30;;;3.50;99.90;;;;;;4999082;28;20030;-77
2021/11/05 03:40:07;;;;;;;2.97;2.38;;;3.50;99.90;;;;;;5009153;28;20017;-79
2021/11/05 03:42:34;;;;;;;6.25;2.30;;;3.50;99.90;;;;;;5010856;28;20026;-78
2021/11/05 03:45:00;;;;;;;1.73;1.63;;;3.40;99.90;;;;;;4996581;28;20041;-78
2021/11/05 03:47:29;;;;;;;2.10;1.90;;;3.40;99.90;;;;;;5014272;28;20034;-78
2021/11/05 03:49:55;;;;;;;1.98;1.73;;;3.40;99.90;;;;;;5010653;28;20041;-77
2021/11/05 03:52:21;;;;;;;2.65;1.85;;;3.40;99.90;;;;;;5000936;28;20065;-78
2021/11/05 03:54:46;;;;;;;2.30;1.80;;;3.40;99.90;;;;;;5003938;28;20052;-78
2021/11/05 03:57:15;;;;;;;3.05;1.88;;;3.30;99.90;;;;;;4998120;28;20030;-77
2021/11/05 03:59:42;;;;;;;2.20;2.00;;;3.30;99.90;;;;;;4979011;28;20027;-78
2021/11/05 04:02:08;;;;;;;2.15;1.52;;;3.30;99.90;;;;;;4981114;28;20120;-79
2021/11/05 04:04:33;;;;;;;2.00;1.80;;;3.30;99.90;;;;;;4996159;28;20026;-77
2021/11/05 04:06:59;;;;;;;2.20;1.88;;;3.30;99.90;;;;;;4995507;28;20030;-77
2021/11/05 04:09:27;;;;;;;1.50;1.40;;;3.30;99.90;;;;;;4996245;28;20030;-77
2021/11/05 04:11:53;;;;;;;2.55;2.10;;;3.30;99.90;;;;;;4996692;28;20041;-77
2021/11/05 04:14:19;;;;;;;2.45;2.10;;;3.30;99.90;;;;;;4996551;28;20039;-77
2021/11/05 04:16:44;;;;;;;3.60;1.70;;;3.30;99.90;;;;;;4998697;28;20054;-78
2021/11/05 04:19:10;;;;;;;2.22;2.03;;;3.40;99.90;;;;;;4982604;28;20022;-78
2021/11/05 04:21:36;;;;;;;1.70;1.40;;;3.40;99.90;;;;;;4992154;28;20035;-78
2021/11/05 04:24:02;;;;;;;1.55;1.45;;;3.30;99.90;;;;;;4997038;28;20050;-78
2021/11/05 04:26:29;;;;;;;2.17;1.73;;;3.40;99.90;;;;;;4981574;28;20066;-76
2021/11/05 04:28:55;;;;;;;1.75;1.55;;;3.40;99.90;;;;;;4993815;28;20084;-77
2021/11/05 04:31:24;;;;;;;1.35;1.23;;;3.40;99.90;;;;;;4980213;28;20407;-78
2021/11/05 04:33:50;;;;;;;2.05;1.55;;;3.50;99.90;;;;;;4996252;28;20137;-78
2021/11/05 04:36:17;;;;;;;1.55;1.45;;;3.50;99.90;;;;;;4995728;28;20391;-77
2021/11/05 04:38:47;;;;;;;1.30;1.20;;;3.60;99.90;;;;;;4999125;28;20014;-79
2021/11/05 04:41:12;;;;;;;1.50;1.40;;;3.60;99.90;;;;;;4996489;28;20053;-76
2021/11/05 04:43:39;;;;;;;3.08;1.73;;;3.60;99.90;;;;;;4996508;28;20023;-78
2021/11/05 04:46:06;;;;;;;1.50;1.40;;;3.60;99.90;;;;;;4987056;28;20695;-78
2021/11/05 04:48:31;;;;;;;1.65;1.45;;;3.60;99.90;;;;;;5004058;28;20077;-79
2021/11/05 04:50:57;;;;;;;2.15;1.67;;;3.50;99.90;;;;;;4998907;28;20407;-78
2021/11/05 04:53:23;;;;;;;2.70;1.95;;;3.50;99.90;;;;;;4984947;28;20042;-78
2021/11/05 04:55:48;;;;;;;2.17;1.98;;;3.50;99.90;;;;;;4983213;28;20033;-78
2021/11/05 04:58:15;;;;;;;1.90;1.73;;;3.40;99.90;;;;;;4994979;28;20029;-78
2021/11/05 05:00:47;;;;;;;3.00;2.00;;;3.50;99.90;;;;;;4996241;28;20110;-79
2021/11/05 05:03:13;;;;;;;2.70;1.92;;;3.40;99.90;;;;;;4995145;28;20042;-77
2021/11/05 05:05:39;;;;;;;3.70;2.15;;;3.30;99.90;;;;;;4998404;28;20105;-76
2021/11/05 05:08:05;;;;;;;3.33;2.28;;;3.30;99.90;;;;;;4997923;28;20027;-77
2021/11/05 05:10:31;;;;;;;2.33;1.77;;;3.20;99.90;;;;;;5002410;28;20023;-78
2021/11/05 05:12:57;;;;;;;2.58;1.70;;;3.20;99.90;;;;;;5001830;28;20027;-77
2021/11/05 05:15:23;;;;;;;1.90;1.52;;;3.10;99.90;;;;;;4998718;28;20483;-77
2021/11/05 05:17:49;;;;;;;3.42;1.70;;;3.10;99.90;;;;;;5000031;28;20041;-77
2021/11/05 05:20:18;;;;;;;1.63;1.52;;;3.10;99.90;;;;;;5002409;28;20030;-79
2021/11/05 05:22:47;;;;;;;1.88;1.48;;;3.00;99.90;;;;;;4979839;28;20022;-77
2021/11/05 05:25:15;;;;;;;2.08;1.42;;;3.00;99.90;;;;;;4999416;28;20105;-78
2021/11/05 05:27:42;;;;;;;1.70;1.20;;;3.00;99.90;;;;;;5020694;23;20100;-82
2021/11/05 05:30:12;;;;;;;2.20;1.55;;;2.90;99.90;;;;;;5039814;28;20026;-81
2021/11/05 05:32:39;;;;;;;1.90;1.52;;;2.90;99.90;;;;;;5029438;28;20034;-81
2021/11/05 05:35:05;;;;;;;1.42;1.33;;;2.90;99.90;;;;;;5025442;28;20024;-82
2021/11/05 05:37:31;;;;;;;2.13;1.42;;;2.90;99.90;;;;;;5022627;28;20045;-84
2021/11/05 05:39:57;;;;;;;1.52;1.42;;;2.90;99.90;;;;;;5024110;28;20760;-83
2021/11/05 05:42:22;;;;;;;1.15;1.05;;;3.00;99.90;;;;;;5023197;28;20036;-82
2021/11/05 05:44:48;;;;;;;1.60;1.17;;;3.10;99.90;;;;;;5024532;28;20122;-83
2021/11/05 05:47:14;;;;;;;2.45;1.60;;;3.10;99.90;;;;;;5022457;28;20116;-84
2021/11/05 05:49:40;;;;;;;2.35;2.05;;;3.20;99.90;;;;;;5023596;28;20343;-84
2021/11/05 05:52:06;;;;;;;1.90;1.50;;;3.30;99.90;;;;;;5022447;28;20026;-83
2021/11/05 05:54:32;;;;;;;2.08;1.60;;;3.30;99.90;;;;;;5023072;28;20073;-82
2021/11/05 05:56:59;;;;;;;2.13;1.40;;;3.40;99.90;;;;;;5020136;28;20032;-84
2021/11/05 05:59:25;;;;;;;2.63;1.75;;;3.40;99.90;;;;;;5022917;28;20046;-84
2021/11/05 06:01:51;;;;;;;2.10;1.40;;;3.40;99.90;;;;;;5023886;28;20490;-82
2021/11/05 06:04:19;;;;;;;3.50;1.70;;;3.50;99.90;;;;;;5022597;28;20082;-82
2021/11/05 06:06:45;;;;;;;2.05;1.40;;;3.40;99.90;;;;;;5021557;28;20022;-82
2021/11/05 06:09:11;;;;;;;2.22;1.88;;;3.50;99.90;;;;;;5023319;28;20490;-84
2021/11/05 06:11:37;;;;;;;1.85;1.50;;;3.50;99.90;;;;;;5023492;28;20018;-83
2021/11/05 06:14:02;;;;;;;2.60;1.50;;;3.50;99.90;;;;;;5024083;28;20022;-83
2021/11/05 06:16:29;;;;;;;1.48;1.27;;;3.40;99.90;;;;;;5022910;28;20615;-82
2021/11/05 06:18:54;;;;;;;2.47;1.45;;;3.40;99.90;;;;;;5024018;28;20042;-83
2021/11/05 06:21:24;;;;;;;2.08;1.60;;;3.40;99.90;;;;;;5023200;28;20036;-83
2021/11/05 06:23:51;;;;;;;1.70;1.60;;;3.40;99.90;;;;;;5023433;28;20133;-83
2021/11/05 06:26:17;;;;;;;1.80;1.58;;;3.40;99.90;;;;;;5023331;28;20022;-84
2021/11/05 06:28:43;;;;;;;2.13;1.83;;;3.30;99.90;;;;;;5021972;28;20033;-83
2021/11/05 06:31:08;;;;;;;1.70;1.60;;;3.30;99.90;;;;;;5023156;28;20032;-82
2021/11/05 06:33:34;;;;;;;2.72;1.55;;;3.30;99.90;;;;;;5023864;28;20061;-82
2021/11/05 06:36:00;;;;;;;1.90;1.70;;;3.30;99.90;;;;;;5023069;28;20032;-83
2021/11/05 06:38:26;;;;;;;2.40;1.75;;;3.40;99.90;;;;;;5023749;28;20442;-84
2021/11/05 06:40:52;;;;;;;2.88;1.63;;;3.40;99.90;;;;;;5022148;28;20025;-83
2021/11/05 06:43:18;;;;;;;3.13;2.30;;;3.50;99.90;;;;;;5021242;28;20424;-83
2021/11/05 06:45:45;;;;;;;2.65;2.17;;;3.50;99.90;;;;;;5024328;28;20104;-83
2021/11/05 06:48:11;;;;;;;3.50;2.55;;;3.50;99.90;;;;;;5024248;28;20010;-83
2021/11/05 06:50:38;;;;;;;3.13;2.22;;;3.60;99.90;;;;;;5024155;28;20014;-82
2021/11/05 06:53:04;;;;;;;7.18;2.15;;;3.60;99.90;;;;;;5024250;28;20036;-82
2021/11/05 06:55:30;;;;;;;3.30;2.35;;;3.60;99.90;;;;;;5036619;28;20022;-81
2021/11/05 06:57:55;;;;;;;3.10;2.28;;;3.60;99.90;;;;;;5037026;28;20034;-82
2021/11/05 07:00:21;;;;;;;2.75;1.92;;;3.60;99.90;;;;;;5030528;28;20033;-82
2021/11/05 07:02:47;;;;;;;4.25;1.98;;;3.60;99.90;;;;;;5021556;28;20033;-82
2021/11/05 07:05:14;;;;;;;3.00;2.10;;;3.50;99.90;;;;;;5021878;28;20089;-82
2021/11/05 07:07:41;;;;;;;3.75;2.10;;;3.50;99.90;;;;;;5024917;28;20053;-82
2021/11/05 07:10:09;;;;;;;3.58;2.53;;;3.60;99.90;;;;;;5028991;28;20093;-84
2021/11/05 07:12:35;;;;;;;4.05;2.95;;;3.70;99.90;;;;;;5021868;28;20086;-83
2021/11/05 07:15:03;;;;;;;3.30;2.10;;;3.70;99.90;;;;;;5022918;28;20036;-83
2021/11/05 07:17:31;;;;;;;2.22;2.00;;;3.80;99.90;;;;;;5022641;28;20224;-83
2021/11/05 07:19:57;;;;;;;2.70;1.77;;;3.90;99.90;;;;;;5022079;28;20033;-83
2021/11/05 07:22:24;;;;;;;3.40;2.17;;;4.00;99.90;;;;;;5022359;28;20038;-83
2021/11/05 07:24:52;;;;;;;2.47;1.77;;;4.10;99.90;;;;;;5021676;28;20029;-82
2021/11/05 07:27:18;;;;;;;2.38;1.67;;;4.20;99.90;;;;;;5021027;28;20033;-82
2021/11/05 07:29:44;;;;;;;2.83;2.30;;;4.30;99.90;;;;;;5022862;28;20041;-83
2021/11/05 07:32:10;;;;;;;2.15;1.95;;;4.40;99.90;;;;;;5021306;28;20030;-83
2021/11/05 07:34:37;;;;;;;3.17;1.83;;;4.70;99.90;;;;;;5032528;28;20073;-80
2021/11/05 07:37:14;;;;;;;2.88;2.03;;;5.60;99.90;;;;;;5031590;28;20057;-82
2021/11/05 07:39:42;;;;;;;1.92;1.60;;;6.60;99.90;;;;;;5017079;28;20025;-83
2021/11/05 07:42:09;;;;;;;2.70;1.70;;;6.90;98.00;;;;;;5018583;28;20022;-84
2021/11/05 07:44:36;;;;;;;2.33;1.63;;;7.00;96.20;;;;;;5017708;28;20037;-82
2021/11/05 07:47:04;;;;;;;3.40;1.95;;;6.70;95.70;;;;;;5017586;28;20572;-83
2021/11/05 07:49:29;;;;;;;2.65;1.70;;;6.50;96.20;;;;;;5019065;28;20030;-83
2021/11/05 07:51:55;;;;;;;4.30;2.78;;;6.40;96.80;;;;;;5024718;28;20018;-84
2021/11/05 07:54:22;;;;;;;5.55;2.45;;;6.60;96.40;;;;;;5030158;28;20052;-85
2021/11/05 07:56:48;;;;;;;3.30;2.10;;;7.10;95.60;;;;;;5034838;28;20025;-82
2021/11/05 07:59:14;;;;;;;3.38;2.35;;;7.50;93.80;;;;;;5035789;28;20533;-82
2021/11/05 08:01:41;;;;;;;2.20;2.00;;;7.50;93.00;;;;;;5025152;28;20093;-83
2021/11/05 08:04:06;;;;;;;2.05;1.90;;;7.20;93.10;;;;;;5024484;28;20022;-84
2021/11/05 08:06:32;;;;;;;4.88;2.40;;;6.90;93.60;;;;;;5024231;28;20025;-84
2021/11/05 08:08:58;;;;;;;4.72;2.50;;;6.80;94.00;;;;;;5020761;28;20052;-84
2021/11/05 08:11:26;;;;;;;3.20;2.05;;;6.70;94.40;;;;;;5022717;28;20037;-83
2021/11/05 08:13:52;;;;;;;2.35;1.98;;;6.70;94.70;;;;;;5022510;28;20025;-83
2021/11/05 08:16:18;;;;;;;6.53;2.65;;;6.80;94.80;;;;;;5023500;28;20057;-85
2021/11/05 08:18:45;;;;;;;3.22;2.67;;;6.80;94.50;;;;;;5024164;28;20072;-83
2021/11/05 08:21:11;;;;;;;2.72;2.08;;;6.80;94.50;;;;;;5023750;28;20026;-84
2021/11/05 08:23:37;;;;;;;2.33;2.13;;;6.90;94.70;;;;;;5022507;28;20057;-83
2021/11/05 08:26:05;;;;;;;3.38;2.50;;;7.00;94.60;;;;;;5022007;28;20037;-83
2021/11/05 08:28:32;;;;;;;3.75;2.92;;;7.00;94.20;;;;;;5028562;28;20402;-83
2021/11/05 08:30:58;;;;;;;3.33;2.60;;;7.00;94.10;;;;;;5025805;28;20082;-84
2021/11/05 08:33:24;;;;;;;5.15;3.05;;;6.90;94.10;;;;;;5024874;28;20026;-83
2021/11/05 08:35:54;;;;;;;3.15;2.40;;;6.80;94.30;;;;;;5023152;28;20402;-83
2021/11/05 08:38:25;;;;;;;2.40;2.15;;;6.80;94.50;;;;;;5005281;28;20109;-84
2021/11/05 08:40:54;;;;;;;3.13;2.70;;;6.90;94.70;;;;;;5022855;28;20022;-83
2021/11/05 08:43:30;;;;;;;6.85;2.97;;;7.10;94.50;;;;;;5022757;28;20033;-84
2021/11/05 08:45:56;;;;;;;3.67;2.97;;;7.30;94.00;;;;;;5026882;28;20033;-83
2021/11/05 08:48:48;;;;;;;2.83;2.63;;;7.50;93.30;;;;;;5025953;28;20038;-84
2021/11/05 08:51:15;;;;;;;5.80;3.17;;;7.70;93.10;;;;;;5010665;28;20113;-84
2021/11/05 08:53:41;;;;;;;3.55;3.10;;;7.80;92.40;;;;;;5021748;28;20034;-83
2021/11/05 08:56:08;;;;;;;3.20;2.90;;;7.90;92.50;;;;;;5020633;28;20045;-83
2021/11/05 08:58:35;;;;;;;3.85;2.63;;;8.10;92.40;;;;;;5022074;28;20026;-82
2021/11/05 09:01:03;;;;;;;4.72;3.13;;;8.20;92.10;;;;;;5022672;28;20030;-83
2021/11/05 09:03:29;;;;;;;4.28;3.13;;;8.30;91.60;;;;;;5021704;28;20036;-83
2021/11/05 09:05:55;;;;;;;4.80;3.13;;;8.40;91.30;;;;;;5021104;28;20026;-82
2021/11/05 09:08:21;;;;;;;2.92;2.50;;;8.50;90.90;;;;;;5020817;28;20053;-83
2021/11/05 09:10:50;;;;;;;3.95;3.05;;;8.60;90.60;;;;;;5019176;28;20463;-84
2021/11/05 09:13:19;;;;;;;5.05;2.58;;;8.60;89.80;;;;;;5018926;28;20051;-84
2021/11/05 09:15:45;;;;;;;3.45;3.08;;;8.70;90.00;;;;;;5018037;28;20439;-84
2021/11/05 09:18:10;;;;;;;4.55;2.78;;;8.70;89.00;;;;;;5018633;28;20056;-83
2021/11/05 09:20:38;;;;;;;3.58;2.65;;;8.80;88.70;;;;;;5020771;28;20432;-83
2021/11/05 09:23:06;;;;;;;4.32;2.58;;;8.80;89.10;;;;;;5017445;28;20050;-83
2021/11/05 09:25:33;;;;;;;4.40;2.55;;;8.90;88.20;;;;;;5020457;28;20463;-84
2021/11/05 09:34:02;;;;;;;2.78;2.22;;;9.00;87.20;;;;;;2945092;22;20469;-83
2021/11/05 09:36:37;;;;;;;3.10;2.63;;;9.00;87.30;;;;;;5015512;28;20124;-84
2021/11/05 09:39:05;;;;;;;3.05;2.58;;;8.90;86.90;;;;;;5006499;28;20077;-83
2021/11/05 09:41:36;;;;;;;3.25;2.95;;;8.80;87.10;;;;;;5025019;28;20058;-83
2021/11/05 09:44:06;;;;;;;3.53;2.72;;;8.80;87.20;;;;;;5013967;28;20421;-85
2021/11/05 09:47:14;;;;;;;;;;;;;;;;;;;;;
2021/11/05 09:49:46;;;;;;;2.28;2.00;;;8.90;87.30;;;;;;5022213;28;20121;-83
2021/11/05 09:52:37;;;;;;;3.35;2.85;;;9.00;87.30;;;;;;5034483;28;20434;-83
2021/11/05 09:58:17;;;;;;;3.10;2.80;;;9.20;85.50;;;;;;5049630;22;20530;-85
2021/11/05 10:00:43;;;;;;;4.40;2.40;;;9.30;84.60;;;;;;5022585;28;20048;-84
2021/11/05 10:03:12;;;;;;;2.30;2.10;;;9.40;84.30;;;;;;5023476;28;20109;-83
2021/11/05 10:05:39;;;;;;;2.92;2.45;;;9.40;84.90;;;;;;5008017;28;20034;-83
2021/11/05 10:08:07;;;;;;;2.60;2.40;;;9.50;84.90;;;;;;5044731;28;20037;-83
2021/11/05 10:10:41;;;;;;;3.40;2.70;;;9.60;82.60;;;;;;5032158;28;20484;-84
2021/11/05 10:13:10;;;;;;;3.10;2.40;;;9.50;82.70;;;;;;5032961;28;20010;-83
2021/11/05 10:15:48;;;;;;;3.70;2.90;;;9.50;83.70;;;;;;5031247;28;20114;-84
2021/11/05 10:18:31;;;;;;;2.15;1.95;;;9.50;83.00;;;;;;5036270;28;20034;-83
2021/11/05 10:21:18;;;;;;;3.00;2.25;;;9.40;83.00;;;;;;5038431;28;20025;-83
2021/11/05 10:23:45;;;;;;;4.80;3.08;;;9.40;82.10;;;;;;5038062;28;20033;-82
2021/11/05 10:26:32;;;;;;;2.70;2.20;;;9.30;82.40;;;;;;5052696;28;20089;-83
2021/11/05 10:28:59;;;;;;;2.47;2.28;;;9.20;82.90;;;;;;5051029;28;20457;-84
2021/11/05 10:31:30;;;;;;;3.00;2.30;;;9.10;83.30;;;;;;5052291;28;20041;-84
2021/11/05 10:33:56;;;;;;;4.47;2.13;;;9.00;83.10;;;;;;5056758;28;20097;-83
2021/11/05 10:36:25;;;;;;;3.30;2.40;;;9.00;83.00;;;;;;5050539;28;20049;-82
2021/11/05 10:39:01;;;;;;;2.17;1.92;;;8.90;83.50;;;;;;5032449;28;20005;-83
2021/11/05 10:41:30;;;;;;;2.22;1.77;;;8.80;84.30;;;;;;5031600;28;20009;-83
2021/11/05 10:44:16;;;;;;;1.45;1.35;;;8.90;84.70;;;;;;5008801;28;20017;-83
2021/11/05 10:46:42;;;;;;;2.70;1.80;;;9.00;84.50;;;;;;5029427;28;20033;-82
2021/11/05 10:49:26;;;;;;;3.08;2.10;;;9.10;84.20;;;;;;5033372;28;20534;-83
2021/11/05 10:52:12;;;;;;;4.13;1.90;;;9.30;84.30;;;;;;5028476;28;20010;-84
2021/11/05 10:54:56;;;;;;;4.35;1.80;;;9.40;82.60;;;;;;5012004;28;20050;-82
2021/11/05 10:57:48;;;;;;;2.45;2.20;;;9.50;82.20;;;;;;5026758;28;20037;-84
2021/11/05 11:00:41;;;;;;;2.58;1.48;;;9.60;82.10;;;;;;5044139;28;20030;-80
2021/11/05 11:03:25;;;;;;;2.15;1.08;;;10.00;81.50;;;;;;5041341;28;20493;-82
2021/11/05 11:05:52;;;;;;;4.85;1.70;;;10.30;80.10;;;;;;5042509;28;20022;-80
2021/11/05 11:08:24;;;;;;;1.92;1.73;;;10.50;77.60;;;;;;5030461;28;20053;-81
2021/11/05 11:10:51;;;;;;;1.45;1.30;;;10.40;76.90;;;;;;5044888;28;20025;-82
2021/11/05 11:13:28;;;;;;;1.88;1.63;;;10.30;77.40;;;;;;5026883;28;20116;-82
2021/11/05 11:15:54;;;;;;;2.75;1.63;;;10.10;77.70;;;;;;5011697;28;20030;-82
2021/11/05 11:18:19;;;;;;;2.00;1.80;;;10.00;78.30;;;;;;5031934;28;20040;-84
2021/11/05 11:20:45;;;;;;;1.55;1.45;;;9.90;79.00;;;;;;5026503;28;20022;-83
2021/11/05 11:23:12;;;;;;;3.35;1.98;;;9.80;79.50;;;;;;5022551;28;20033;-82
2021/11/05 11:25:38;;;;;;;2.50;2.05;;;9.70;79.20;;;;;;5029527;28;20029;-83
2021/11/05 11:28:04;;;;;;;2.58;1.90;;;9.60;80.50;;;;;;5061036;22;20492;-79
2021/11/05 11:30:30;;;;;;;2.80;1.70;;;9.60;80.90;;;;;;5045232;28;20032;-80
2021/11/05 11:32:58;;;;;;;1.50;1.40;;;9.60;81.50;;;;;;5028579;28;20060;-78
2021/11/05 11:35:25;;;;;;;2.53;2.08;;;9.70;81.70;;;;;;5033048;28;20037;-80
2021/11/05 11:37:51;;;;;;;2.63;1.80;;;9.70;80.00;;;;;;5012089;28;20064;-80
2021/11/05 11:40:17;;;;;;;5.78;2.40;;;9.60;80.70;;;;;;5026108;28;20033;-81
2021/11/05 11:42:43;;;;;;;2.33;2.13;;;9.40;81.90;;;;;;5022860;28;20088;-81
2021/11/05 11:45:11;;;;;;;4.18;2.30;;;9.30;82.70;;;;;;5020740;28;20057;-81
2021/11/05 11:47:49;;;;;;;2.50;2.10;;;9.20;83.10;;;;;;5021154;28;20048;-79
2021/11/05 11:50:30;;;;;;;4.45;2.20;;;9.20;83.70;;;;;;5013318;28;20030;-80
2021/11/05 11:53:05;;;;;;;3.72;1.90;;;9.50;82.40;;;;;;5015834;28;20034;-80
2021/11/05 11:55:35;;;;;;;2.33;1.88;;;9.70;81.20;;;;;;5003404;28;20029;-80
2021/11/05 11:58:25;;;;;;;3.10;2.10;;;10.00;80.50;;;;;;5020330;28;20021;-79
2021/11/05 12:00:51;;;;;;;4.10;2.08;;;10.20;80.20;;;;;;5020255;28;20258;-80
2021/11/05 12:03:26;;;;;;;1.92;1.73;;;10.30;79.50;;;;;;5022632;28;20052;-79
2021/11/05 12:06:00;;;;;;;3.15;1.42;;;10.20;78.20;;;;;;5010249;28;20026;-79
2021/11/05 12:08:43;;;;;;;1.52;1.42;;;10.10;78.80;;;;;;5006868;28;20018;-80
2021/11/05 12:11:14;;;;;;;5.28;1.80;;;10.10;78.00;;;;;;5004495;28;20022;-81
2021/11/05 12:13:42;;;;;;;1.23;1.13;;;10.00;77.90;;;;;;5006556;28;20057;-80
2021/11/05 12:16:16;;;;;;;1.75;1.40;;;10.00;77.70;;;;;;5030207;28;20077;-81
2021/11/05 12:18:58;;;;;;;1.75;1.50;;;9.90;78.50;;;;;;5029134;28;20227;-80
2021/11/05 12:21:30;;;;;;;1.63;1.50;;;10.10;79.10;;;;;;5014204;28;20013;-80
2021/11/05 12:26:42;;;;;;;2.30;1.27;;;10.50;76.80;;;;;;5031350;28;20049;-81
2021/11/05 12:29:08;;;;;;;2.05;1.15;;;10.90;76.40;;;;;;5024731;28;20025;-80
2021/11/05 12:31:36;;;;;;;1.20;1.08;;;11.10;75.50;;;;;;5019610;28;20033;-82
2021/11/05 12:34:24;;;;;;;1.25;0.60;;;11.30;73.00;;;;;;5022694;28;20022;-80
2021/11/05 12:36:56;;;;;;;0.98;0.52;;;11.40;70.10;;;;;;5008563;28;20501;-82
2021/11/05 12:39:29;;;;;;;0.47;0.45;;;11.40;69.50;;;;;;5023101;28;20041;-81
2021/11/05 12:42:00;;;;;;;2.15;0.52;;;11.30;68.90;;;;;;5021574;28;20010;-79
2021/11/05 12:44:28;;;;;;;0.43;0.43;;;11.10;68.80;;;;;;5022167;28;20061;-81
2021/11/05 12:46:55;;;;;;;1.17;0.90;;;10.80;68.30;;;;;;5005218;28;20052;-81
2021/11/05 12:49:22;;;;;;;0.77;0.63;;;10.70;69.40;;;;;;5030699;28;20037;-81
2021/11/05 12:51:51;;;;;;;1.02;0.80;;;10.60;69.30;;;;;;5011748;28;20128;-81
2021/11/05 12:54:19;;;;;;;0.70;0.70;;;10.60;69.20;;;;;;5009714;28;20033;-80
2021/11/05 12:56:50;;;;;;;0.50;0.50;;;10.50;70.00;;;;;;5003937;28;20038;-81
2021/11/05 12:59:18;;;;;;;3.78;0.90;;;10.50;70.20;;;;;;5026350;28;20029;-80
2021/11/05 13:01:52;;;;;;;0.50;0.50;;;10.40;70.60;;;;;;5029833;28;20022;-80
2021/11/05 13:04:18;;;;;;;0.50;0.50;;;10.40;69.90;;;;;;5023467;28;20026;-81
2021/11/05 13:06:55;;;;;;;0.57;0.57;;;10.30;70.20;;;;;;5022201;28;20030;-80
2021/11/05 13:09:39;;;;;;;1.15;0.70;;;10.30;70.60;;;;;;5020998;28;20033;-81
2021/11/05 13:12:05;;;;;;;1.58;0.52;;;10.40;71.00;;;;;;5017320;28;20041;-82
2021/11/05 13:14:41;;;;;;;2.17;0.50;;;10.50;70.80;;;;;;5005669;28;20030;-81
2021/11/05 13:17:14;;;;;;;1.05;0.57;;;10.60;70.90;;;;;;5024812;28;20121;-82